sensor_id;sensor_type;location;lat;lon;timestamp;pressure;altitude;pressure_sealevel;temperature;humidity
79085;BME280;68486;42.808;23.422;2023-06-04T00:01:03;94338.13;;;14.93;90.53
79085;BME280;68486;42.808;23.422;2023-06-04T00:03:30;94341.16;;;14.65;90.35
79085;BME280;68486;42.808;23.422;2023-06-04T00:05:55;94340.91;;;14.73;90.82
79085;BME280;68486;42.808;23.422;2023-06-04T00:08:21;94350.06;;;14.96;89.72
79085;BME280;68486;42.808;23.422;2023-06-04T00:10:47;94348.22;;;14.96;89.35
79085;BME280;68486;42.808;23.422;2023-06-04T00:13:12;94345.47;;;14.84;89.74
79085;BME280;68486;42.808;23.422;2023-06-04T00:15:37;94310.47;;;14.46;89.79
79085;BME280;68486;42.808;23.422;2023-06-04T00:18:03;94324.59;;;14.58;89.61
79085;BME280;68486;42.808;23.422;2023-06-04T00:20:28;94341.97;;;14.66;90.09
79085;BME280;68486;42.808;23.422;2023-06-04T00:22:54;94341.44;;;14.57;90.30
79085;BME280;68486;42.808;23.422;2023-06-04T00:25:19;94338.53;;;14.65;90.19
79085;BME280;68486;42.808;23.422;2023-06-04T00:27:45;94341.56;;;14.94;89.58
79085;BME280;68486;42.808;23.422;2023-06-04T00:30:11;94334.91;;;14.84;89.58
79085;BME280;68486;42.808;23.422;2023-06-04T00:32:36;94331.97;;;14.74;90.10
79085;BME280;68486;42.808;23.422;2023-06-04T00:35:02;94318.50;;;14.82;90.26
79085;BME280;68486;42.808;23.422;2023-06-04T00:37:28;94342.84;;;15.09;89.63
79085;BME280;68486;42.808;23.422;2023-06-04T00:39:55;94339.72;;;14.94;90.36
79085;BME280;68486;42.808;23.422;2023-06-04T00:42:20;94342.25;;;14.82;90.07
79085;BME280;68486;42.808;23.422;2023-06-04T00:44:46;94331.75;;;14.76;89.91
79085;BME280;68486;42.808;23.422;2023-06-04T00:47:13;94335.22;;;14.70;89.58
79085;BME280;68486;42.808;23.422;2023-06-04T00:49:39;94325.38;;;14.58;90.58
79085;BME280;68486;42.808;23.422;2023-06-04T00:52:05;94314.53;;;14.73;90.67
79085;BME280;68486;42.808;23.422;2023-06-04T00:54:31;94328.03;;;14.83;89.98
79085;BME280;68486;42.808;23.422;2023-06-04T00:56:57;94322.06;;;14.95;89.85
79085;BME280;68486;42.808;23.422;2023-06-04T00:59:23;94324.50;;;14.96;89.65
79085;BME280;68486;42.808;23.422;2023-06-04T01:02:01;94322.75;;;14.83;89.54
79085;BME280;68486;42.808;23.422;2023-06-04T01:04:53;94324.00;;;14.81;90.52
79085;BME280;68486;42.808;23.422;2023-06-04T01:07:21;94331.78;;;15.01;88.98
79085;BME280;68486;42.808;23.422;2023-06-04T01:09:48;94306.09;;;14.89;88.96
79085;BME280;68486;42.808;23.422;2023-06-04T01:12:14;94330.75;;;15.02;89.03
79085;BME280;68486;42.808;23.422;2023-06-04T01:14:40;94336.19;;;15.07;88.83
79085;BME280;68486;42.808;23.422;2023-06-04T01:17:15;94321.84;;;14.96;88.34
79085;BME280;68486;42.808;23.422;2023-06-04T01:24:56;94298.63;;;14.86;87.51
79085;BME280;68486;42.808;23.422;2023-06-04T01:27:24;94327.22;;;14.83;87.76
79085;BME280;68486;42.808;23.422;2023-06-04T01:29:50;94331.00;;;14.94;86.88
79085;BME280;68486;42.808;23.422;2023-06-04T01:32:17;94335.31;;;14.88;87.81
79085;BME280;68486;42.808;23.422;2023-06-04T01:34:46;94338.47;;;14.97;87.28
79085;BME280;68486;42.808;23.422;2023-06-04T01:37:12;94341.28;;;15.02;87.03
79085;BME280;68486;42.808;23.422;2023-06-04T01:39:38;94320.75;;;14.85;85.40
79085;BME280;68486;42.808;23.422;2023-06-04T01:42:04;94346.50;;;15.08;85.99
79085;BME280;68486;42.808;23.422;2023-06-04T01:44:29;94344.50;;;15.04;88.16
79085;BME280;68486;42.808;23.422;2023-06-04T01:46:55;94340.50;;;15.01;87.33
79085;BME280;68486;42.808;23.422;2023-06-04T01:49:20;94345.25;;;15.11;86.41
79085;BME280;68486;42.808;23.422;2023-06-04T01:51:46;94348.06;;;15.16;88.07
79085;BME280;68486;42.808;23.422;2023-06-04T01:54:11;94335.56;;;15.05;88.25
79085;BME280;68486;42.808;23.422;2023-06-04T01:56:36;94355.06;;;15.04;87.89
79085;BME280;68486;42.808;23.422;2023-06-04T01:59:02;94354.22;;;15.10;88.55
79085;BME280;68486;42.808;23.422;2023-06-04T02:01:27;94352.16;;;15.12;87.15
79085;BME280;68486;42.808;23.422;2023-06-04T02:03:52;94351.13;;;15.13;87.01
79085;BME280;68486;42.808;23.422;2023-06-04T02:06:18;94353.94;;;15.18;86.90
79085;BME280;68486;42.808;23.422;2023-06-04T02:08:43;94357.59;;;15.17;87.41
79085;BME280;68486;42.808;23.422;2023-06-04T02:11:10;94358.78;;;15.21;86.93
79085;BME280;68486;42.808;23.422;2023-06-04T02:13:35;94363.91;;;15.16;86.80
79085;BME280;68486;42.808;23.422;2023-06-04T02:16:01;94356.78;;;15.16;86.89
79085;BME280;68486;42.808;23.422;2023-06-04T02:18:26;94366.53;;;15.16;86.57
79085;BME280;68486;42.808;23.422;2023-06-04T02:20:52;94353.56;;;15.14;86.50
79085;BME280;68486;42.808;23.422;2023-06-04T02:23:18;94369.00;;;15.11;86.99
79085;BME280;68486;42.808;23.422;2023-06-04T02:25:45;94378.59;;;15.05;86.90
79085;BME280;68486;42.808;23.422;2023-06-04T02:28:11;94368.59;;;15.14;87.39
79085;BME280;68486;42.808;23.422;2023-06-04T02:30:37;94377.09;;;15.16;86.64
79085;BME280;68486;42.808;23.422;2023-06-04T02:33:03;94372.22;;;15.13;86.52
79085;BME280;68486;42.808;23.422;2023-06-04T02:35:30;94383.81;;;15.12;87.90
79085;BME280;68486;42.808;23.422;2023-06-04T02:37:56;94383.84;;;15.05;88.13
79085;BME280;68486;42.808;23.422;2023-06-04T02:40:26;94375.09;;;15.11;88.33
79085;BME280;68486;42.808;23.422;2023-06-04T02:42:53;94372.22;;;14.88;87.32
79085;BME280;68486;42.808;23.422;2023-06-04T02:45:19;94385.78;;;14.92;86.96
79085;BME280;68486;42.808;23.422;2023-06-04T02:47:44;94373.88;;;14.82;87.35
79085;BME280;68486;42.808;23.422;2023-06-04T02:50:11;94386.41;;;14.94;87.64
79085;BME280;68486;42.808;23.422;2023-06-04T02:52:36;94384.69;;;14.74;86.90
79085;BME280;68486;42.808;23.422;2023-06-04T02:55:03;94389.16;;;14.74;87.46
79085;BME280;68486;42.808;23.422;2023-06-04T02:57:29;94395.25;;;14.74;86.47
79085;BME280;68486;42.808;23.422;2023-06-04T02:59:55;94403.47;;;14.84;87.52
79085;BME280;68486;42.808;23.422;2023-06-04T03:02:21;94405.56;;;14.76;87.70
79085;BME280;68486;42.808;23.422;2023-06-04T03:04:46;94405.97;;;14.79;88.48
79085;BME280;68486;42.808;23.422;2023-06-04T03:07:13;94407.06;;;14.65;88.29
79085;BME280;68486;42.808;23.422;2023-06-04T03:09:38;94411.16;;;14.54;87.64
79085;BME280;68486;42.808;23.422;2023-06-04T03:12:04;94410.75;;;14.57;88.65
79085;BME280;68486;42.808;23.422;2023-06-04T03:14:31;94412.56;;;14.64;89.23
79085;BME280;68486;42.808;23.422;2023-06-04T03:17:01;94417.22;;;14.61;88.90
79085;BME280;68486;42.808;23.422;2023-06-04T03:19:33;94413.44;;;14.51;89.15
79085;BME280;68486;42.808;23.422;2023-06-04T03:21:59;94404.94;;;14.42;88.83
79085;BME280;68486;42.808;23.422;2023-06-04T03:24:26;94413.44;;;14.51;89.57
79085;BME280;68486;42.808;23.422;2023-06-04T03:26:51;94417.88;;;14.44;89.61
79085;BME280;68486;42.808;23.422;2023-06-04T03:29:16;94409.41;;;14.42;89.39
79085;BME280;68486;42.808;23.422;2023-06-04T03:31:44;94392.00;;;14.34;89.46
79085;BME280;68486;42.808;23.422;2023-06-04T03:34:10;94409.78;;;14.39;89.45
79085;BME280;68486;42.808;23.422;2023-06-04T03:36:35;94417.88;;;14.44;89.47
79085;BME280;68486;42.808;23.422;2023-06-04T03:39:03;94425.38;;;14.47;90.02
79085;BME280;68486;42.808;23.422;2023-06-04T03:41:30;94403.91;;;14.43;88.43
79085;BME280;68486;42.808;23.422;2023-06-04T03:43:55;94417.75;;;14.70;88.75
79085;BME280;68486;42.808;23.422;2023-06-04T03:46:21;94427.19;;;14.53;89.12
79085;BME280;68486;42.808;23.422;2023-06-04T03:48:46;94426.16;;;14.54;89.19
79085;BME280;68486;42.808;23.422;2023-06-04T03:51:11;94423.53;;;14.54;89.26
79085;BME280;68486;42.808;23.422;2023-06-04T03:53:37;94427.19;;;14.53;89.36
79085;BME280;68486;42.808;23.422;2023-06-04T03:56:02;94427.75;;;14.61;88.51
79085;BME280;68486;42.808;23.422;2023-06-04T03:58:28;94430.19;;;14.63;89.02
79085;BME280;68486;42.808;23.422;2023-06-04T04:00:54;94425.09;;;14.68;88.85
79085;BME280;68486;42.808;23.422;2023-06-04T04:03:19;94411.13;;;14.61;88.03
79085;BME280;68486;42.808;23.422;2023-06-04T04:05:46;94439.28;;;14.67;88.23
79085;BME280;68486;42.808;23.422;2023-06-04T04:08:12;94422.03;;;14.71;88.50
79085;BME280;68486;42.808;23.422;2023-06-04T04:10:37;94447.31;;;14.85;87.46
79085;BME280;68486;42.808;23.422;2023-06-04T04:13:03;94449.19;;;14.78;87.91
79085;BME280;68486;42.808;23.422;2023-06-04T04:15:28;94450.22;;;14.71;88.36
79085;BME280;68486;42.808;23.422;2023-06-04T04:17:55;94449.56;;;14.75;88.47
79085;BME280;68486;42.808;23.422;2023-06-04T04:20:20;94458.31;;;14.69;88.38
79085;BME280;68486;42.808;23.422;2023-06-04T04:22:46;94455.84;;;14.81;88.58
79085;BME280;68486;42.808;23.422;2023-06-04T04:25:11;94459.81;;;14.58;87.90
79085;BME280;68486;42.808;23.422;2023-06-04T04:27:36;94468.88;;;14.69;88.44
79085;BME280;68486;42.808;23.422;2023-06-04T04:30:06;94457.91;;;14.72;88.27
79085;BME280;68486;42.808;23.422;2023-06-04T04:32:31;94466.41;;;14.74;88.64
79085;BME280;68486;42.808;23.422;2023-06-04T04:34:57;94465.00;;;14.78;88.28
79085;BME280;68486;42.808;23.422;2023-06-04T04:37:23;94465.59;;;14.80;88.09
79085;BME280;68486;42.808;23.422;2023-06-04T04:39:49;94460.47;;;14.92;88.44
79085;BME280;68486;42.808;23.422;2023-06-04T04:42:20;94462.34;;;14.78;88.07
79085;BME280;68486;42.808;23.422;2023-06-04T04:44:46;94459.72;;;14.78;88.51
79085;BME280;68486;42.808;23.422;2023-06-04T04:47:14;94453.78;;;14.83;88.29
79085;BME280;68486;42.808;23.422;2023-06-04T04:49:40;94456.56;;;14.95;88.13
79085;BME280;68486;42.808;23.422;2023-06-04T04:52:05;94462.69;;;14.88;88.08
79085;BME280;68486;42.808;23.422;2023-06-04T04:54:31;94453.63;;;14.78;87.97
79085;BME280;68486;42.808;23.422;2023-06-04T04:56:56;94463.66;;;15.01;88.02
79085;BME280;68486;42.808;23.422;2023-06-04T04:59:21;94465.84;;;15.04;87.44
79085;BME280;68486;42.808;23.422;2023-06-04T05:01:47;94463.56;;;15.14;87.03
79085;BME280;68486;42.808;23.422;2023-06-04T05:04:12;94465.44;;;15.07;87.96
79085;BME280;68486;42.808;23.422;2023-06-04T05:06:37;94463.50;;;15.21;86.66
79085;BME280;68486;42.808;23.422;2023-06-04T05:09:03;94470.16;;;15.30;87.89
79085;BME280;68486;42.808;23.422;2023-06-04T05:11:29;94478.69;;;15.25;85.83
79085;BME280;68486;42.808;23.422;2023-06-04T05:13:54;94455.78;;;15.19;86.83
79085;BME280;68486;42.808;23.422;2023-06-04T05:16:20;94451.53;;;15.18;86.67
79085;BME280;68486;42.808;23.422;2023-06-04T05:18:47;94470.69;;;15.38;85.97
79085;BME280;68486;42.808;23.422;2023-06-04T05:21:13;94484.69;;;15.39;86.00
79085;BME280;68486;42.808;23.422;2023-06-04T05:23:38;94482.13;;;15.57;85.32
79085;BME280;68486;42.808;23.422;2023-06-04T05:26:04;94479.66;;;15.56;86.11
79085;BME280;68486;42.808;23.422;2023-06-04T05:28:31;94475.25;;;15.50;85.38
79085;BME280;68486;42.808;23.422;2023-06-04T05:30:58;94473.31;;;15.38;86.06
79085;BME280;68486;42.808;23.422;2023-06-04T05:33:30;94476.44;;;15.54;85.42
79085;BME280;68486;42.808;23.422;2023-06-04T05:35:55;94468.69;;;15.59;85.09
79085;BME280;68486;42.808;23.422;2023-06-04T05:38:23;94486.22;;;15.78;85.11
79085;BME280;68486;42.808;23.422;2023-06-04T05:40:51;94483.91;;;15.88;84.03
79085;BME280;68486;42.808;23.422;2023-06-04T05:43:17;94485.13;;;15.86;83.16
79085;BME280;68486;42.808;23.422;2023-06-04T05:45:43;94497.28;;;15.93;83.49
79085;BME280;68486;42.808;23.422;2023-06-04T05:48:08;94481.25;;;15.88;82.09
79085;BME280;68486;42.808;23.422;2023-06-04T05:50:34;94495.16;;;16.02;82.64
79085;BME280;68486;42.808;23.422;2023-06-04T05:52:59;94492.53;;;15.77;82.97
79085;BME280;68486;42.808;23.422;2023-06-04T05:55:24;94505.50;;;16.04;84.39
79085;BME280;68486;42.808;23.422;2023-06-04T05:57:50;94477.81;;;15.88;83.38
79085;BME280;68486;42.808;23.422;2023-06-04T06:00:18;94514.69;;;16.01;82.61
79085;BME280;68486;42.808;23.422;2023-06-04T06:02:44;94516.47;;;16.25;82.90
79085;BME280;68486;42.808;23.422;2023-06-04T06:05:10;94499.81;;;16.00;82.96
79085;BME280;68486;42.808;23.422;2023-06-04T06:07:35;94517.84;;;16.10;83.10
79085;BME280;68486;42.808;23.422;2023-06-04T06:10:02;94514.81;;;16.06;83.00
79085;BME280;68486;42.808;23.422;2023-06-04T06:12:28;94526.50;;;16.17;82.49
79085;BME280;68486;42.808;23.422;2023-06-04T06:14:53;94522.94;;;16.30;83.06
79085;BME280;68486;42.808;23.422;2023-06-04T06:17:18;94527.25;;;16.42;82.51
79085;BME280;68486;42.808;23.422;2023-06-04T06:19:44;94516.69;;;16.42;82.48
79085;BME280;68486;42.808;23.422;2023-06-04T06:22:10;94529.84;;;16.31;80.15
79085;BME280;68486;42.808;23.422;2023-06-04T06:24:35;94528.06;;;16.79;80.79
79085;BME280;68486;42.808;23.422;2023-06-04T06:27:01;94518.03;;;16.88;80.18
79085;BME280;68486;42.808;23.422;2023-06-04T06:29:27;94524.38;;;16.99;79.66
79085;BME280;68486;42.808;23.422;2023-06-04T06:31:52;94519.56;;;17.26;78.46
79085;BME280;68486;42.808;23.422;2023-06-04T06:34:17;94519.56;;;17.37;77.38
79085;BME280;68486;42.808;23.422;2023-06-04T06:36:43;94530.44;;;17.59;75.65
79085;BME280;68486;42.808;23.422;2023-06-04T06:39:09;94520.41;;;17.91;75.70
79085;BME280;68486;42.808;23.422;2023-06-04T06:41:36;94518.00;;;17.90;73.70
79085;BME280;68486;42.808;23.422;2023-06-04T06:44:03;94520.38;;;17.80;75.29
79085;BME280;68486;42.808;23.422;2023-06-04T06:46:29;94513.84;;;18.17;74.35
79085;BME280;68486;42.808;23.422;2023-06-04T06:48:54;94525.13;;;18.25;72.68
79085;BME280;68486;42.808;23.422;2023-06-04T06:51:19;94526.25;;;18.52;72.75
79085;BME280;68486;42.808;23.422;2023-06-04T06:53:45;94530.75;;;18.75;72.76
79085;BME280;68486;42.808;23.422;2023-06-04T06:56:10;94523.81;;;18.86;72.53
79085;BME280;68486;42.808;23.422;2023-06-04T06:58:37;94528.59;;;19.00;68.69
79085;BME280;68486;42.808;23.422;2023-06-04T07:01:02;94524.88;;;19.70;69.46
79085;BME280;68486;42.808;23.422;2023-06-04T07:03:28;94534.13;;;20.01;69.32
79085;BME280;68486;42.808;23.422;2023-06-04T07:05:53;94520.84;;;19.85;64.86
79085;BME280;68486;42.808;23.422;2023-06-04T07:08:20;94539.28;;;20.80;66.27
79085;BME280;68486;42.808;23.422;2023-06-04T07:10:46;94546.75;;;20.83;65.23
79085;BME280;68486;42.808;23.422;2023-06-04T07:13:11;94542.19;;;20.79;61.43
79085;BME280;68486;42.808;23.422;2023-06-04T07:15:37;94548.84;;;20.81;64.28
79085;BME280;68486;42.808;23.422;2023-06-04T07:18:02;94550.03;;;21.34;62.40
79085;BME280;68486;42.808;23.422;2023-06-04T07:20:27;94543.34;;;22.13;60.42
79085;BME280;68486;42.808;23.422;2023-06-04T07:22:53;94558.38;;;22.29;60.66
79085;BME280;68486;42.808;23.422;2023-06-04T07:25:19;94507.03;;;21.47;62.59
79085;BME280;68486;42.808;23.422;2023-06-04T07:27:45;94552.56;;;22.32;58.75
79085;BME280;68486;42.808;23.422;2023-06-04T07:30:10;94549.34;;;21.71;58.78
79085;BME280;68486;42.808;23.422;2023-06-04T07:32:36;94554.91;;;22.71;59.91
79085;BME280;68486;42.808;23.422;2023-06-04T07:35:02;94551.97;;;22.25;56.02
79085;BME280;68486;42.808;23.422;2023-06-04T07:37:28;94553.81;;;22.67;57.73
79085;BME280;68486;42.808;23.422;2023-06-04T07:39:53;94551.22;;;22.77;58.28
79085;BME280;68486;42.808;23.422;2023-06-04T07:42:18;94560.88;;;22.83;57.60
79085;BME280;68486;42.808;23.422;2023-06-04T07:44:44;94561.41;;;23.43;53.74
79085;BME280;68486;42.808;23.422;2023-06-04T07:47:09;94557.94;;;23.52;55.21
79085;BME280;68486;42.808;23.422;2023-06-04T07:49:35;94557.91;;;23.37;55.53
79085;BME280;68486;42.808;23.422;2023-06-04T07:52:00;94561.00;;;23.76;56.24
79085;BME280;68486;42.808;23.422;2023-06-04T07:54:26;94563.97;;;24.05;53.45
79085;BME280;68486;42.808;23.422;2023-06-04T07:56:51;94564.06;;;23.43;54.45
79085;BME280;68486;42.808;23.422;2023-06-04T07:59:22;94572.22;;;23.05;54.92
79085;BME280;68486;42.808;23.422;2023-06-04T08:01:47;94569.38;;;23.27;52.37
79085;BME280;68486;42.808;23.422;2023-06-04T08:04:13;94573.56;;;23.91;54.10
79085;BME280;68486;42.808;23.422;2023-06-04T08:06:38;94573.03;;;23.94;52.58
79085;BME280;68486;42.808;23.422;2023-06-04T08:09:04;94579.03;;;23.44;52.55
79085;BME280;68486;42.808;23.422;2023-06-04T08:11:30;94579.50;;;24.39;51.88
79085;BME280;68486;42.808;23.422;2023-06-04T08:13:55;94574.16;;;24.34;49.84
79085;BME280;68486;42.808;23.422;2023-06-04T08:16:21;94577.31;;;24.00;50.67
79085;BME280;68486;42.808;23.422;2023-06-04T08:18:46;94576.00;;;24.64;48.49
79085;BME280;68486;42.808;23.422;2023-06-04T08:21:11;94577.56;;;23.83;50.87
79085;BME280;68486;42.808;23.422;2023-06-04T08:23:37;94582.69;;;24.56;48.44
79085;BME280;68486;42.808;23.422;2023-06-04T08:26:02;94587.53;;;24.34;47.18
79085;BME280;68486;42.808;23.422;2023-06-04T08:28:28;94586.19;;;24.57;49.39
79085;BME280;68486;42.808;23.422;2023-06-04T08:30:53;94589.03;;;24.91;47.98
79085;BME280;68486;42.808;23.422;2023-06-04T08:33:19;94586.28;;;25.26;48.33
79085;BME280;68486;42.808;23.422;2023-06-04T08:35:44;94589.91;;;24.40;50.85
79085;BME280;68486;42.808;23.422;2023-06-04T08:38:09;94595.47;;;23.88;50.04
79085;BME280;68486;42.808;23.422;2023-06-04T08:40:35;94593.13;;;24.27;50.80
79085;BME280;68486;42.808;23.422;2023-06-04T08:43:01;94593.88;;;23.97;49.52
79085;BME280;68486;42.808;23.422;2023-06-04T08:45:27;94595.72;;;23.03;51.73
79085;BME280;68486;42.808;23.422;2023-06-04T08:47:53;94602.25;;;23.38;52.62
79085;BME280;68486;42.808;23.422;2023-06-04T08:50:24;94550.69;;;22.38;53.37
79085;BME280;68486;42.808;23.422;2023-06-04T08:52:52;94609.88;;;23.09;54.30
79085;BME280;68486;42.808;23.422;2023-06-04T08:55:19;94607.13;;;22.94;54.96
79085;BME280;68486;42.808;23.422;2023-06-04T08:57:45;94605.69;;;22.81;54.36
79085;BME280;68486;42.808;23.422;2023-06-04T09:00:11;94604.22;;;22.58;54.78
79085;BME280;68486;42.808;23.422;2023-06-04T09:02:37;94615.09;;;22.14;55.94
79085;BME280;68486;42.808;23.422;2023-06-04T09:05:04;94613.22;;;22.47;55.98
79085;BME280;68486;42.808;23.422;2023-06-04T09:07:30;94611.09;;;23.33;54.83
79085;BME280;68486;42.808;23.422;2023-06-04T09:09:56;94613.75;;;23.33;54.68
79085;BME280;68486;42.808;23.422;2023-06-04T09:12:24;94612.03;;;23.07;53.82
79085;BME280;68486;42.808;23.422;2023-06-04T09:14:50;94613.47;;;23.30;54.62
79085;BME280;68486;42.808;23.422;2023-06-04T09:17:21;94615.03;;;23.21;53.58
79085;BME280;68486;42.808;23.422;2023-06-04T09:19:47;94616.88;;;23.88;52.87
79085;BME280;68486;42.808;23.422;2023-06-04T09:22:12;94619.25;;;23.69;50.86
79085;BME280;68486;42.808;23.422;2023-06-04T09:24:40;94621.19;;;23.94;49.00
79085;BME280;68486;42.808;23.422;2023-06-04T09:27:13;94606.59;;;23.49;50.17
79085;BME280;68486;42.808;23.422;2023-06-04T09:29:39;94601.97;;;24.53;49.88
79085;BME280;68486;42.808;23.422;2023-06-04T09:32:05;94610.47;;;25.11;47.39
79085;BME280;68486;42.808;23.422;2023-06-04T09:34:31;94614.28;;;24.44;47.04
79085;BME280;68486;42.808;23.422;2023-06-04T09:36:58;94607.22;;;23.82;49.29
79085;BME280;68486;42.808;23.422;2023-06-04T09:39:24;94608.88;;;24.03;51.18
79085;BME280;68486;42.808;23.422;2023-06-04T09:42:02;94611.09;;;24.42;49.15
79085;BME280;68486;42.808;23.422;2023-06-04T09:44:29;94612.13;;;24.46;49.30
79085;BME280;68486;42.808;23.422;2023-06-04T09:46:58;94605.94;;;25.07;48.06
79085;BME280;68486;42.808;23.422;2023-06-04T09:49:24;94615.75;;;25.32;47.97
79085;BME280;68486;42.808;23.422;2023-06-04T09:51:50;94614.75;;;25.02;46.71
79085;BME280;68486;42.808;23.422;2023-06-04T09:54:16;94615.03;;;25.80;47.38
79085;BME280;68486;42.808;23.422;2023-06-04T09:56:42;94591.94;;;26.58;45.88
79085;BME280;68486;42.808;23.422;2023-06-04T09:59:10;94609.56;;;26.98;43.13
79085;BME280;68486;42.808;23.422;2023-06-04T10:01:39;94613.19;;;26.54;44.97
79085;BME280;68486;42.808;23.422;2023-06-04T10:04:07;94586.75;;;26.37;44.37
79085;BME280;68486;42.808;23.422;2023-06-04T10:06:34;94617.63;;;25.96;44.15
79085;BME280;68486;42.808;23.422;2023-06-04T10:09:05;94597.94;;;26.79;43.29
79085;BME280;68486;42.808;23.422;2023-06-04T10:11:34;94607.78;;;26.20;46.59
79085;BME280;68486;42.808;23.422;2023-06-04T10:14:03;94610.22;;;25.77;44.62
79085;BME280;68486;42.808;23.422;2023-06-04T10:16:31;94609.56;;;25.96;43.58
79085;BME280;68486;42.808;23.422;2023-06-04T10:18:57;94605.09;;;26.59;43.15
79085;BME280;68486;42.808;23.422;2023-06-04T10:21:24;94585.03;;;26.12;44.11
79085;BME280;68486;42.808;23.422;2023-06-04T10:23:51;94579.50;;;26.96;42.66
79085;BME280;68486;42.808;23.422;2023-06-04T10:26:16;94603.63;;;25.99;41.43
79085;BME280;68486;42.808;23.422;2023-06-04T10:28:42;94609.53;;;26.74;41.58
79085;BME280;68486;42.808;23.422;2023-06-04T10:31:11;94613.25;;;26.05;43.39
79085;BME280;68486;42.808;23.422;2023-06-04T10:33:38;94611.41;;;26.45;42.61
79085;BME280;68486;42.808;23.422;2023-06-04T10:36:21;94606.22;;;26.82;42.95
79085;BME280;68486;42.808;23.422;2023-06-04T10:38:48;94613.66;;;26.27;44.39
79085;BME280;68486;42.808;23.422;2023-06-04T10:41:15;94591.25;;;26.08;43.25
79085;BME280;68486;42.808;23.422;2023-06-04T10:43:47;94624.50;;;26.07;42.44
79085;BME280;68486;42.808;23.422;2023-06-04T10:46:18;94616.72;;;25.61;43.76
79085;BME280;68486;42.808;23.422;2023-06-04T10:48:50;94607.28;;;26.18;45.56
79085;BME280;68486;42.808;23.422;2023-06-04T10:51:31;94605.78;;;26.41;43.41
79085;BME280;68486;42.808;23.422;2023-06-04T10:53:58;94607.38;;;26.03;43.00
79085;BME280;68486;42.808;23.422;2023-06-04T10:56:28;94608.06;;;26.24;42.35
79085;BME280;68486;42.808;23.422;2023-06-04T10:58:54;94602.47;;;26.54;43.36
79085;BME280;68486;42.808;23.422;2023-06-04T11:01:26;94585.69;;;27.68;40.34
79085;BME280;68486;42.808;23.422;2023-06-04T11:03:52;94605.91;;;29.61;38.03
79085;BME280;68486;42.808;23.422;2023-06-04T11:06:18;94609.91;;;29.78;35.69
79085;BME280;68486;42.808;23.422;2023-06-04T11:08:43;94604.75;;;28.47;37.32
79085;BME280;68486;42.808;23.422;2023-06-04T11:11:14;94605.03;;;26.93;40.73
79085;BME280;68486;42.808;23.422;2023-06-04T11:13:40;94592.38;;;27.71;39.95
79085;BME280;68486;42.808;23.422;2023-06-04T11:16:19;94599.53;;;27.09;40.46
79085;BME280;68486;42.808;23.422;2023-06-04T11:18:54;94597.31;;;28.72;37.46
79085;BME280;68486;42.808;23.422;2023-06-04T11:21:21;94582.44;;;28.74;37.78
79085;BME280;68486;42.808;23.422;2023-06-04T11:23:46;94593.69;;;28.95;37.21
79085;BME280;68486;42.808;23.422;2023-06-04T11:26:12;94593.22;;;28.74;38.52
79085;BME280;68486;42.808;23.422;2023-06-04T11:28:38;94606.78;;;29.16;38.10
79085;BME280;68486;42.808;23.422;2023-06-04T11:31:05;94608.16;;;28.15;40.72
79085;BME280;68486;42.808;23.422;2023-06-04T11:33:51;94616.28;;;27.72;40.67
79085;BME280;68486;42.808;23.422;2023-06-04T11:36:27;94609.41;;;27.37;41.32
79085;BME280;68486;42.808;23.422;2023-06-04T11:38:57;94606.94;;;25.85;43.13
79085;BME280;68486;42.808;23.422;2023-06-04T11:41:33;94606.38;;;25.94;43.66
79085;BME280;68486;42.808;23.422;2023-06-04T11:44:04;94577.00;;;25.03;44.72
79085;BME280;68486;42.808;23.422;2023-06-04T11:46:32;94604.66;;;24.58;46.57
79085;BME280;68486;42.808;23.422;2023-06-04T11:48:57;94598.75;;;24.71;46.74
79085;BME280;68486;42.808;23.422;2023-06-04T11:51:23;94615.88;;;24.55;49.14
79085;BME280;68486;42.808;23.422;2023-06-04T11:53:49;94602.22;;;24.77;45.85
79085;BME280;68486;42.808;23.422;2023-06-04T11:56:15;94611.16;;;26.02;44.65
79085;BME280;68486;42.808;23.422;2023-06-04T11:58:42;94593.63;;;24.75;45.96
79085;BME280;68486;42.808;23.422;2023-06-04T12:01:08;94614.31;;;25.60;46.73
79085;BME280;68486;42.808;23.422;2023-06-04T12:03:36;94604.78;;;26.66;43.12
79085;BME280;68486;42.808;23.422;2023-06-04T12:14:17;94597.19;;;29.09;37.16
79085;BME280;68486;42.808;23.422;2023-06-04T12:17:27;94598.75;;;28.50;38.29
79085;BME280;68486;42.808;23.422;2023-06-04T12:19:50;94603.22;;;28.41;37.94
79085;BME280;68486;42.808;23.422;2023-06-04T12:22:16;94604.38;;;28.68;37.50
79085;BME280;68486;42.808;23.422;2023-06-04T12:24:55;94602.78;;;28.34;38.08
79085;BME280;68486;42.808;23.422;2023-06-04T12:27:23;94609.53;;;27.03;39.60
79085;BME280;68486;42.808;23.422;2023-06-04T12:30:02;94604.44;;;27.49;39.13
79085;BME280;68486;42.808;23.422;2023-06-04T12:32:27;94597.94;;;27.08;39.59
79085;BME280;68486;42.808;23.422;2023-06-04T12:34:53;94604.19;;;26.98;40.91
79085;BME280;68486;42.808;23.422;2023-06-04T12:37:22;94610.66;;;27.45;39.14
79085;BME280;68486;42.808;23.422;2023-06-04T12:39:50;94604.66;;;27.77;37.91
79085;BME280;68486;42.808;23.422;2023-06-04T12:42:17;94594.63;;;27.83;38.09
79085;BME280;68486;42.808;23.422;2023-06-04T12:44:44;94597.53;;;27.67;39.21
79085;BME280;68486;42.808;23.422;2023-06-04T12:47:10;94577.38;;;28.40;37.70
79085;BME280;68486;42.808;23.422;2023-06-04T12:49:36;94593.41;;;27.27;40.10
79085;BME280;68486;42.808;23.422;2023-06-04T12:52:02;94597.69;;;25.57;44.53
79085;BME280;68486;42.808;23.422;2023-06-04T12:54:27;94593.06;;;24.88;46.15
79085;BME280;68486;42.808;23.422;2023-06-04T12:56:54;94589.13;;;24.35;47.37
79085;BME280;68486;42.808;23.422;2023-06-04T12:59:20;94596.06;;;24.05;48.33
79085;BME280;68486;42.808;23.422;2023-06-04T13:01:46;94604.03;;;23.80;48.32